createdAt,value
2018-12-19T00:00:40.236Z,27.40
2018-12-19T00:01:40.235Z,27.40
2018-12-19T00:02:40.199Z,28.50
2018-12-19T00:03:40.195Z,27.80
2018-12-19T00:04:40.195Z,28.20
2018-12-19T00:05:40.162Z,29.30
2018-12-19T00:06:40.155Z,27.50
2018-12-19T00:07:40.172Z,28.30
2018-12-19T00:08:40.131Z,28.70
2018-12-19T00:09:40.143Z,29.00
2018-12-19T00:10:40.128Z,29.80
2018-12-19T00:11:40.137Z,29.00
2018-12-19T00:12:40.082Z,32.30
2018-12-19T00:13:40.076Z,29.40
2018-12-19T00:14:40.066Z,29.50
2018-12-19T00:15:40.056Z,26.00
2018-12-19T00:16:40.141Z,28.70
2018-12-19T00:17:40.066Z,28.60
2018-12-19T00:18:40.026Z,28.40
2018-12-19T00:19:40.014Z,29.70
2018-12-19T00:20:40.007Z,28.20
2018-12-19T00:21:39.995Z,28.60
2018-12-19T00:22:39.997Z,29.20
2018-12-19T00:23:40.026Z,27.90
2018-12-19T00:24:40.050Z,30.60
2018-12-19T00:25:40.003Z,28.10
2018-12-19T00:26:39.935Z,27.70
2018-12-19T00:27:39.941Z,27.00
2018-12-19T00:28:39.916Z,28.20
2018-12-19T00:29:39.907Z,25.50
2018-12-19T00:30:39.884Z,29.10
2018-12-19T00:31:40.009Z,28.10
2018-12-19T00:32:39.902Z,28.60
2018-12-19T00:33:39.883Z,26.90
2018-12-19T00:34:39.875Z,27.90
2018-12-19T00:35:39.832Z,26.80
2018-12-19T00:36:39.817Z,25.50
2018-12-19T00:37:39.845Z,28.30
2018-12-19T00:38:39.835Z,30.80
2018-12-19T00:39:39.802Z,28.20
2018-12-19T00:40:39.777Z,29.30
2018-12-19T00:41:39.771Z,27.50
2018-12-19T00:42:39.784Z,28.90
2018-12-19T00:43:39.761Z,27.70
2018-12-19T00:44:39.765Z,30.20
2018-12-19T00:45:39.742Z,29.30
2018-12-19T00:46:39.725Z,28.40
2018-12-19T00:47:39.728Z,27.70
2018-12-19T00:48:40.021Z,29.10
2018-12-19T00:49:39.732Z,28.60
2018-12-19T00:50:39.676Z,26.10
2018-12-19T00:51:39.692Z,26.30
2018-12-19T00:52:39.644Z,28.70
2018-12-19T00:53:39.648Z,28.40
2018-12-19T00:54:39.621Z,27.00
2018-12-19T00:55:39.599Z,29.30
2018-12-19T00:56:39.598Z,28.80
2018-12-19T00:57:39.658Z,27.80
2018-12-19T00:58:39.611Z,27.10
2018-12-19T00:59:39.578Z,28.90
2018-12-19T01:00:39.562Z,30.30
2018-12-19T01:01:39.560Z,29.40
2018-12-19T01:02:39.558Z,29.60
2018-12-19T01:03:39.576Z,27.60
2018-12-19T01:04:39.547Z,30.10
2018-12-19T01:05:39.506Z,29.10
2018-12-19T01:06:39.558Z,27.70
2018-12-19T01:07:39.476Z,28.40
2018-12-19T01:08:39.495Z,27.10
2018-12-19T01:09:39.464Z,26.20
2018-12-19T01:10:39.457Z,27.60
2018-12-19T01:11:39.433Z,27.60
2018-12-19T01:12:39.421Z,28.20
2018-12-19T01:13:39.472Z,31.90
2018-12-19T01:14:39.430Z,28.50
2018-12-19T01:15:39.387Z,29.50
2018-12-19T01:16:39.389Z,25.50
2018-12-19T01:17:39.369Z,30.00
2018-12-19T01:18:39.361Z,29.20
2018-12-19T01:19:39.389Z,28.70
2018-12-19T01:20:39.337Z,30.10
2018-12-19T01:21:39.333Z,29.30
2018-12-19T01:22:39.317Z,31.40
2018-12-19T01:23:39.306Z,28.50
2018-12-19T01:24:39.322Z,28.80
2018-12-19T01:25:39.299Z,28.50
2018-12-19T01:26:39.279Z,28.30
2018-12-19T01:27:39.270Z,29.30
2018-12-19T01:28:39.247Z,28.40
2018-12-19T01:29:39.316Z,28.80
2018-12-19T01:30:39.240Z,28.30
2018-12-19T01:31:39.224Z,29.60
2018-12-19T01:32:39.206Z,28.90
2018-12-19T01:33:39.196Z,28.80
2018-12-19T01:34:39.182Z,29.50
2018-12-19T01:35:39.232Z,27.10
2018-12-19T01:36:39.179Z,29.00
2018-12-19T01:37:39.179Z,30.20
2018-12-19T01:38:39.145Z,28.00
2018-12-19T01:39:39.133Z,28.10
2018-12-19T01:40:39.140Z,28.70
2018-12-19T01:41:39.106Z,26.30
2018-12-19T01:42:39.204Z,27.00
2018-12-19T01:43:39.093Z,29.20
2018-12-19T01:44:39.126Z,29.10
2018-12-19T01:45:39.082Z,27.00
2018-12-19T01:46:39.044Z,28.20
2018-12-19T01:47:39.033Z,27.50
2018-12-19T01:48:39.039Z,29.70
2018-12-19T01:49:39.043Z,28.20
2018-12-19T01:50:39.139Z,28.60
2018-12-19T01:51:38.995Z,28.50
2018-12-19T01:52:39.003Z,27.60
2018-12-19T01:53:38.978Z,28.50
2018-12-19T01:54:38.959Z,28.70
2018-12-19T01:55:38.976Z,27.20
2018-12-19T01:56:38.948Z,29.20
2018-12-19T01:57:38.933Z,28.80
2018-12-19T01:58:38.915Z,25.50
2018-12-19T01:59:38.914Z,27.10
2018-12-19T02:00:38.921Z,29.00
2018-12-19T02:01:38.898Z,25.70
2018-12-19T02:02:38.886Z,26.60
2018-12-19T02:03:38.862Z,27.90
2018-12-19T02:04:38.849Z,29.30
2018-12-19T02:05:38.859Z,28.30
2018-12-19T02:06:38.857Z,27.00
2018-12-19T02:07:38.854Z,27.00
2018-12-19T02:08:38.800Z,27.60
2018-12-19T02:09:38.794Z,30.30
2018-12-19T02:10:38.786Z,27.40
2018-12-19T02:11:38.795Z,27.50
2018-12-19T02:12:38.785Z,27.30
2018-12-19T02:13:38.755Z,28.70
2018-12-19T02:14:38.744Z,25.80
2018-12-19T02:15:38.732Z,27.80
2018-12-19T02:16:38.736Z,29.50
2018-12-19T02:17:38.700Z,30.20
2018-12-19T02:18:38.695Z,27.20
2018-12-19T02:19:38.699Z,25.70
2018-12-19T02:20:38.683Z,26.70
2018-12-19T02:21:38.692Z,26.90
2018-12-19T02:22:38.649Z,28.40
2018-12-19T02:23:38.647Z,28.30
2018-12-19T02:24:38.634Z,27.30
2018-12-19T02:25:38.626Z,26.10
2018-12-19T02:26:38.643Z,28.70
2018-12-19T02:27:38.643Z,27.80
2018-12-19T02:28:38.587Z,27.10
2018-12-19T02:29:38.577Z,27.20
2018-12-19T02:30:38.564Z,27.70
2018-12-19T02:31:38.558Z,26.60
2018-12-19T02:32:38.579Z,26.30
2018-12-19T02:33:38.531Z,27.90
2018-12-19T02:34:38.540Z,27.00
2018-12-19T02:35:38.527Z,27.70
2018-12-19T02:36:38.504Z,27.60
2018-12-19T02:37:38.503Z,26.10
2018-12-19T02:38:38.474Z,28.80
2018-12-19T02:39:38.458Z,27.20
2018-12-19T02:40:38.466Z,26.50
2018-12-19T02:41:38.434Z,26.60
2018-12-19T02:42:38.441Z,26.40
2018-12-19T02:43:38.452Z,28.40
2018-12-19T02:44:38.417Z,28.10
2018-12-19T02:45:38.404Z,25.70
2018-12-19T02:46:38.395Z,25.00
2018-12-19T02:47:38.402Z,25.00
2018-12-19T02:48:38.363Z,27.40
2018-12-19T02:49:38.370Z,27.10
2018-12-19T02:50:38.360Z,30.00
2018-12-19T02:51:38.335Z,28.50
2018-12-19T02:52:38.335Z,27.30
2018-12-19T02:53:38.313Z,28.30
2018-12-19T02:54:38.380Z,27.70
2018-12-19T02:55:38.290Z,29.10
2018-12-19T02:56:38.284Z,26.10
2018-12-19T02:57:38.312Z,27.50
2018-12-19T02:58:38.258Z,26.70
2018-12-19T02:59:38.242Z,27.00
2018-12-19T03:00:38.238Z,26.00
2018-12-19T03:01:38.244Z,26.80
2018-12-19T03:02:38.223Z,26.60
2018-12-19T03:03:38.207Z,30.10
2018-12-19T03:04:38.194Z,27.40
2018-12-19T03:05:38.180Z,27.00
2018-12-19T03:06:38.179Z,30.00
2018-12-19T03:07:38.212Z,28.10
2018-12-19T03:08:38.201Z,27.00
2018-12-19T03:09:42.957Z,27.40
2018-12-19T03:10:39.119Z,31.50
2018-12-19T03:11:38.131Z,26.60
2018-12-19T03:12:38.119Z,27.60
2018-12-19T03:13:38.110Z,28.20
2018-12-19T03:14:38.081Z,27.80
2018-12-19T03:15:38.060Z,28.40
2018-12-19T03:16:38.052Z,27.10
2018-12-19T03:17:38.051Z,29.20
2018-12-19T03:18:38.058Z,28.80
2018-12-19T03:19:38.043Z,27.20
2018-12-19T03:20:38.004Z,28.10
2018-12-19T03:21:38.000Z,27.90
2018-12-19T03:22:37.984Z,26.10
2018-12-19T03:23:37.995Z,28.40
2018-12-19T03:24:37.987Z,28.90
2018-12-19T03:25:37.967Z,27.90
2018-12-19T03:26:37.959Z,26.60
2018-12-19T03:27:37.932Z,25.60
2018-12-19T03:28:37.956Z,24.30
2018-12-19T03:29:37.921Z,28.70
2018-12-19T03:30:38.003Z,29.80
2018-12-19T03:31:37.922Z,26.80
2018-12-19T03:32:37.897Z,28.70
2018-12-19T03:33:37.888Z,27.20
2018-12-19T03:34:37.885Z,27.90
2018-12-19T03:35:37.872Z,29.70
2018-12-19T03:36:37.843Z,28.10
2018-12-19T03:37:37.852Z,26.50
2018-12-19T03:38:37.824Z,28.70
2018-12-19T03:39:37.836Z,27.90
2018-12-19T03:40:37.807Z,28.40
2018-12-19T03:41:37.788Z,27.50
2018-12-19T03:42:37.765Z,25.60
2018-12-19T03:43:37.760Z,28.60
2018-12-19T03:44:37.788Z,27.20
2018-12-19T03:45:37.744Z,24.80
2018-12-19T03:46:37.739Z,25.80
2018-12-19T03:47:37.733Z,27.10
2018-12-19T03:48:37.718Z,26.70
2018-12-19T03:49:37.722Z,28.20
2018-12-19T03:50:37.696Z,27.00
2018-12-19T03:51:37.673Z,28.50
2018-12-19T03:52:37.682Z,25.80
2018-12-19T03:53:37.643Z,27.50
2018-12-19T03:54:37.648Z,27.80
2018-12-19T03:55:37.681Z,29.30
2018-12-19T03:56:37.613Z,27.60
2018-12-19T03:57:37.629Z,27.10
2018-12-19T03:58:37.591Z,26.40
2018-12-19T03:59:37.609Z,26.00
2018-12-19T04:00:37.569Z,28.00
2018-12-19T04:01:37.634Z,30.10
2018-12-19T04:02:37.559Z,25.70
2018-12-19T04:03:37.544Z,25.70
2018-12-19T04:04:37.553Z,28.00
2018-12-19T04:05:37.546Z,26.70
2018-12-19T04:06:37.530Z,28.50
2018-12-19T04:07:37.542Z,28.50
2018-12-19T04:08:37.503Z,27.50
2018-12-19T04:09:37.500Z,26.50
2018-12-19T04:10:37.460Z,31.50
2018-12-19T04:11:37.455Z,28.40
2018-12-19T04:12:37.452Z,27.70
2018-12-19T04:13:37.448Z,27.20
2018-12-19T04:14:37.455Z,27.40
2018-12-19T04:15:37.429Z,27.40
2018-12-19T04:16:37.397Z,29.10
2018-12-19T04:17:37.389Z,27.50
2018-12-19T04:18:37.382Z,27.60
2018-12-19T04:19:37.372Z,27.70
2018-12-19T04:20:37.406Z,27.70
2018-12-19T04:21:37.345Z,28.10
2018-12-19T04:22:37.330Z,26.80
2018-12-19T04:23:37.320Z,27.90
2018-12-19T04:24:37.309Z,28.30
2018-12-19T04:25:37.302Z,28.10
2018-12-19T04:26:37.310Z,27.10
2018-12-19T04:27:37.273Z,28.90
2018-12-19T04:28:37.283Z,28.70
2018-12-19T04:29:37.258Z,27.40
2018-12-19T04:30:37.243Z,29.80
2018-12-19T04:31:37.252Z,28.80
2018-12-19T04:32:37.226Z,28.10
2018-12-19T04:33:37.210Z,26.10
2018-12-19T04:34:37.251Z,28.50
2018-12-19T04:35:37.195Z,27.60
2018-12-19T04:36:37.216Z,28.20
2018-12-19T04:37:37.174Z,28.60
2018-12-19T04:38:37.159Z,28.60
2018-12-19T04:39:37.156Z,27.80
2018-12-19T04:40:37.136Z,26.50
2018-12-19T04:41:37.154Z,27.10
2018-12-19T04:42:37.110Z,27.80
2018-12-19T04:43:37.149Z,28.00
2018-12-19T04:44:37.127Z,27.70
2018-12-19T04:45:37.126Z,27.60
2018-12-19T04:46:37.112Z,28.00
2018-12-19T04:47:37.080Z,26.80
2018-12-19T04:48:37.053Z,29.30
2018-12-19T04:49:37.054Z,28.40
2018-12-19T04:50:37.025Z,25.40
2018-12-19T04:51:37.018Z,26.70
2018-12-19T04:52:37.029Z,27.30
2018-12-19T04:53:37.020Z,27.60
2018-12-19T04:54:37.015Z,28.00
2018-12-19T04:55:37.009Z,27.90
2018-12-19T04:56:36.998Z,25.80
2018-12-19T04:57:36.982Z,27.20
2018-12-19T04:58:37.924Z,26.40
2018-12-19T04:59:36.935Z,25.70
2018-12-19T05:00:36.931Z,27.00
2018-12-19T05:01:36.957Z,29.20
2018-12-19T05:02:36.927Z,28.00
2018-12-19T05:03:36.905Z,30.70
2018-12-19T05:04:36.881Z,26.00
2018-12-19T05:05:36.903Z,29.20
2018-12-19T05:06:36.884Z,27.00
2018-12-19T05:07:36.906Z,27.70
2018-12-19T05:08:36.839Z,29.00
2018-12-19T05:09:36.844Z,30.50
2018-12-19T05:10:36.816Z,28.20
2018-12-19T05:11:36.799Z,28.30
2018-12-19T05:12:36.801Z,27.10
2018-12-19T05:13:36.818Z,28.40
2018-12-19T05:14:36.789Z,27.50
2018-12-19T05:15:36.757Z,26.90
2018-12-19T05:16:36.744Z,27.40
2018-12-19T05:17:36.757Z,27.50
2018-12-19T05:18:36.742Z,26.60
2018-12-19T05:19:36.729Z,27.50
2018-12-19T05:20:36.711Z,29.00
2018-12-19T05:21:36.696Z,27.80
2018-12-19T05:22:36.689Z,25.40
2018-12-19T05:23:36.690Z,29.00
2018-12-19T05:24:36.657Z,28.50
2018-12-19T05:25:36.648Z,28.00
2018-12-19T05:26:36.641Z,28.60
2018-12-19T05:27:36.633Z,29.10
2018-12-19T05:28:36.659Z,27.90
2018-12-19T05:29:36.599Z,29.10
2018-12-19T05:30:36.597Z,29.00
2018-12-19T05:31:36.586Z,30.80
2018-12-19T05:32:36.571Z,28.60
2018-12-19T05:33:36.580Z,29.60
2018-12-19T05:34:36.561Z,28.40
2018-12-19T05:35:36.557Z,29.20
2018-12-19T05:36:36.528Z,28.80
2018-12-19T05:37:36.514Z,28.70
2018-12-19T05:38:36.519Z,29.90
2018-12-19T05:39:36.515Z,30.40
2018-12-19T05:40:36.503Z,30.40
2018-12-19T05:41:36.633Z,30.90
2018-12-19T05:42:36.463Z,31.60
2018-12-19T05:43:36.481Z,35.10
2018-12-19T05:44:36.439Z,34.50
2018-12-19T05:45:36.432Z,36.70
2018-12-19T05:46:36.418Z,35.20
2018-12-19T05:47:36.405Z,33.40
2018-12-19T05:48:36.415Z,35.90
2018-12-19T05:49:36.380Z,34.20
2018-12-19T05:50:36.402Z,38.60
2018-12-19T05:51:36.375Z,35.50
2018-12-19T05:52:36.357Z,36.40
2018-12-19T05:53:36.338Z,39.60
2018-12-19T05:54:36.330Z,38.20
2018-12-19T05:55:36.350Z,39.40
2018-12-19T05:56:36.306Z,37.20
2018-12-19T05:57:36.297Z,35.60
2018-12-19T05:58:36.298Z,38.50
2018-12-19T05:59:36.277Z,40.80
2018-12-19T06:00:36.291Z,37.70
2018-12-19T06:01:36.250Z,39.40
2018-12-19T06:02:36.240Z,39.70
2018-12-19T06:03:36.238Z,38.80
2018-12-19T06:04:36.217Z,40.10
2018-12-19T06:05:36.239Z,40.90
2018-12-19T06:06:36.201Z,44.00
2018-12-19T06:07:36.190Z,45.60
2018-12-19T06:08:36.177Z,42.70
2018-12-19T06:09:36.183Z,43.50
2018-12-19T06:10:36.193Z,41.20
2018-12-19T06:11:36.150Z,42.90
2018-12-19T06:12:36.134Z,43.10
2018-12-19T06:13:36.145Z,40.70
2018-12-19T06:14:36.114Z,38.00
2018-12-19T06:15:36.126Z,34.70
2018-12-19T06:16:36.138Z,40.40
2018-12-19T06:17:36.105Z,38.20
2018-12-19T06:18:36.068Z,37.60
2018-12-19T06:19:36.060Z,37.70
2018-12-19T06:20:36.075Z,43.80
2018-12-19T06:21:36.050Z,43.00
2018-12-19T06:22:36.037Z,44.40
2018-12-19T06:23:36.019Z,46.60
2018-12-19T06:24:36.008Z,45.30
2018-12-19T06:25:36.089Z,46.50
2018-12-19T06:26:36.004Z,43.50
2018-12-19T06:27:35.973Z,41.10
2018-12-19T06:28:35.990Z,46.50
2018-12-19T06:29:35.946Z,46.10
2018-12-19T06:30:35.952Z,38.70
2018-12-19T06:31:35.946Z,43.70
2018-12-19T06:32:35.926Z,43.50
2018-12-19T06:33:35.907Z,42.50
2018-12-19T06:34:35.898Z,42.30
2018-12-19T06:35:35.880Z,38.80
2018-12-19T06:36:35.919Z,40.90
2018-12-19T06:37:35.899Z,44.60
2018-12-19T06:38:35.851Z,43.20
2018-12-19T06:39:35.839Z,40.00
2018-12-19T06:40:35.834Z,42.50
2018-12-19T06:41:35.831Z,45.30
2018-12-19T06:42:35.848Z,43.80
2018-12-19T06:43:35.798Z,41.10
2018-12-19T06:44:35.793Z,43.30
2018-12-19T06:45:35.777Z,41.90
2018-12-19T06:46:35.781Z,42.60
2018-12-19T06:47:35.786Z,40.20
2018-12-19T06:48:35.751Z,42.70
2018-12-19T06:49:35.738Z,42.70
2018-12-19T06:50:35.726Z,39.50
2018-12-19T06:51:35.714Z,39.30
2018-12-19T06:52:35.753Z,40.40
2018-12-19T06:53:35.702Z,36.90
2018-12-19T06:54:35.682Z,39.90
2018-12-19T06:55:35.666Z,43.70
2018-12-19T06:56:35.655Z,37.40
2018-12-19T06:57:35.663Z,42.00
2018-12-19T06:58:35.643Z,40.10
2018-12-19T06:59:35.650Z,38.40
2018-12-19T07:00:35.615Z,42.40
2018-12-19T07:01:35.636Z,40.90
2018-12-19T07:02:35.610Z,38.80
2018-12-19T07:03:35.596Z,38.90
2018-12-19T07:04:35.574Z,37.50
2018-12-19T07:05:35.562Z,44.20
2018-12-19T07:06:35.581Z,42.70
2018-12-19T07:07:35.583Z,35.60
2018-12-19T07:08:35.537Z,39.50
2018-12-19T07:09:35.519Z,37.90
2018-12-19T07:10:39.074Z,41.40
2018-12-19T07:11:35.498Z,39.80
2018-12-19T07:12:35.520Z,39.20
2018-12-19T07:13:35.506Z,35.80
2018-12-19T07:14:35.462Z,38.60
2018-12-19T07:15:35.454Z,39.20
2018-12-19T07:16:35.478Z,40.10
2018-12-19T07:17:35.449Z,38.70
2018-12-19T07:18:35.450Z,42.40
2018-12-19T07:19:35.449Z,42.30
2018-12-19T07:20:35.402Z,43.60
2018-12-19T07:21:35.395Z,40.90
2018-12-19T07:22:35.388Z,38.70
2018-12-19T07:23:35.417Z,42.40
2018-12-19T07:24:35.366Z,41.80
2018-12-19T07:25:35.341Z,36.50
2018-12-19T07:26:35.338Z,37.10
2018-12-19T07:27:35.347Z,41.40
2018-12-19T07:28:35.353Z,41.00
2018-12-19T07:29:35.315Z,39.00
2018-12-19T07:30:35.286Z,38.50
2018-12-19T07:31:35.294Z,40.90
2018-12-19T07:32:35.290Z,45.10
2018-12-19T07:33:35.278Z,39.20
2018-12-19T07:34:35.266Z,44.10
2018-12-19T07:35:35.235Z,40.70
2018-12-19T07:36:35.224Z,41.70
2018-12-19T07:37:35.225Z,38.50
2018-12-19T07:38:35.213Z,40.00
2018-12-19T07:39:35.224Z,39.60
2018-12-19T07:40:35.201Z,41.70
2018-12-19T07:41:35.181Z,41.40
2018-12-19T07:42:35.267Z,42.30
2018-12-19T07:43:35.206Z,37.10
2018-12-19T07:44:35.188Z,37.30
2018-12-19T07:45:35.137Z,42.90
2018-12-19T07:46:35.126Z,43.00
2018-12-19T07:47:35.119Z,44.70
2018-12-19T07:48:35.101Z,42.90
2018-12-19T07:49:35.106Z,43.10
2018-12-19T07:50:35.074Z,41.60
2018-12-19T07:51:35.069Z,37.90
2018-12-19T07:52:35.069Z,37.10
2018-12-19T07:53:35.039Z,39.50
2018-12-19T07:54:35.057Z,40.90
2018-12-19T07:55:35.015Z,41.90
2018-12-19T07:56:35.008Z,38.60
2018-12-19T07:57:35.008Z,40.50
2018-12-19T07:58:34.990Z,42.70
2018-12-19T07:59:34.989Z,40.30
2018-12-19T08:00:34.975Z,46.70
2018-12-19T08:01:34.950Z,44.20
2018-12-19T08:02:34.947Z,41.30
2018-12-19T08:03:34.949Z,38.00
2018-12-19T08:04:34.944Z,44.20
2018-12-19T08:05:34.910Z,41.30
2018-12-19T08:06:34.893Z,48.90
2018-12-19T08:07:34.885Z,46.70
2018-12-19T08:08:34.877Z,40.90
2018-12-19T08:09:34.890Z,40.70
2018-12-19T08:10:34.869Z,39.40
2018-12-19T08:11:34.845Z,40.20
2018-12-19T08:12:36.199Z,41.00
2018-12-19T08:13:34.818Z,41.90
2018-12-19T08:14:34.826Z,40.50
2018-12-19T08:15:34.821Z,50.60
2018-12-19T08:16:34.797Z,41.00
2018-12-19T08:17:34.782Z,44.50
2018-12-19T08:18:34.773Z,45.70
2018-12-19T08:19:34.760Z,42.00
2018-12-19T08:20:34.765Z,42.20
2018-12-19T08:21:34.733Z,38.70
2018-12-19T08:22:34.737Z,39.20
2018-12-19T08:23:34.713Z,39.20
2018-12-19T08:24:34.708Z,43.40
2018-12-19T08:25:34.710Z,53.70
2018-12-19T08:26:34.682Z,43.80
2018-12-19T08:27:34.669Z,38.00
2018-12-19T08:28:34.659Z,39.10
2018-12-19T08:29:34.647Z,41.10
2018-12-19T08:30:34.662Z,42.90
2018-12-19T08:31:34.653Z,49.70
2018-12-19T08:32:34.627Z,47.30
2018-12-19T08:33:34.602Z,43.40
2018-12-19T08:34:34.664Z,42.20
2018-12-19T08:35:34.610Z,38.10
2018-12-19T08:36:34.603Z,39.80
2018-12-19T08:37:34.562Z,47.30
2018-12-19T08:38:34.555Z,35.40
2018-12-19T08:39:34.549Z,39.90
2018-12-19T08:40:34.533Z,39.80
2018-12-19T08:41:34.525Z,42.20
2018-12-19T08:42:34.521Z,46.50
2018-12-19T08:43:34.506Z,44.20
2018-12-19T08:44:34.493Z,40.00
2018-12-19T08:45:34.475Z,38.20
2018-12-19T08:46:34.508Z,37.80
2018-12-19T08:47:34.456Z,38.90
2018-12-19T08:48:34.444Z,37.80
2018-12-19T08:49:34.429Z,43.10
2018-12-19T08:50:34.420Z,42.30
2018-12-19T08:51:34.439Z,41.50
2018-12-19T08:52:34.420Z,40.70
2018-12-19T08:53:34.393Z,42.60
2018-12-19T08:54:34.382Z,43.00
2018-12-19T08:55:34.401Z,43.70
2018-12-19T08:56:34.366Z,40.40
2018-12-19T08:57:34.380Z,41.70
2018-12-19T08:58:34.343Z,37.60
2018-12-19T08:59:34.324Z,39.50
2018-12-19T09:00:34.318Z,39.60
2018-12-19T09:01:34.325Z,35.00
2018-12-19T09:02:34.311Z,37.50
2018-12-19T09:03:34.279Z,31.20
2018-12-19T09:04:34.295Z,30.30
2018-12-19T09:05:34.255Z,32.40
2018-12-19T09:06:34.255Z,36.00
2018-12-19T09:07:34.262Z,30.90
2018-12-19T09:08:34.229Z,28.80
2018-12-19T09:09:34.232Z,30.50
2018-12-19T09:10:34.210Z,31.20
2018-12-19T09:11:34.209Z,32.50
2018-12-19T09:12:34.210Z,29.90
2018-12-19T09:13:34.180Z,33.10
2018-12-19T09:14:34.162Z,27.30
2018-12-19T09:15:34.153Z,31.90
2018-12-19T09:16:34.146Z,31.70
2018-12-19T09:17:34.161Z,32.80
2018-12-19T09:18:34.122Z,27.90
2018-12-19T09:19:34.115Z,27.70
2018-12-19T09:20:34.096Z,28.70
2018-12-19T09:21:34.084Z,30.90
2018-12-19T09:22:34.070Z,29.40
2018-12-19T09:23:34.094Z,31.70
2018-12-19T09:24:34.054Z,28.20
2018-12-19T09:25:34.038Z,28.60
2018-12-19T09:26:34.029Z,26.40
2018-12-19T09:27:34.016Z,29.40
2018-12-19T09:28:34.022Z,25.60
2018-12-19T09:29:34.007Z,26.30
2018-12-19T09:30:34.046Z,23.90
2018-12-19T09:31:34.007Z,24.60
2018-12-19T09:32:33.984Z,25.50
2018-12-19T09:33:33.988Z,23.30
2018-12-19T09:34:33.945Z,24.00
2018-12-19T09:35:33.930Z,24.70
2018-12-19T09:36:33.917Z,27.10
2018-12-19T09:37:33.911Z,26.70
2018-12-19T09:38:33.913Z,27.30
2018-12-19T09:39:33.885Z,28.40
2018-12-19T09:40:33.892Z,26.00
2018-12-19T09:41:33.865Z,26.20
2018-12-19T09:42:33.849Z,25.50
2018-12-19T09:43:33.881Z,26.60
2018-12-19T09:44:33.837Z,26.60
2018-12-19T09:45:33.817Z,25.60
2018-12-19T09:46:33.836Z,25.20
2018-12-19T09:47:33.909Z,27.30
2018-12-19T09:48:33.788Z,27.30
2018-12-19T09:49:33.824Z,27.10
2018-12-19T09:50:33.811Z,26.10
2018-12-19T09:51:33.761Z,25.90
2018-12-19T09:52:33.751Z,24.70
2018-12-19T09:53:33.769Z,25.90
2018-12-19T09:54:33.722Z,25.10
2018-12-19T09:55:33.713Z,26.10
2018-12-19T09:56:33.725Z,25.60
2018-12-19T09:57:33.686Z,25.50
2018-12-19T09:58:33.678Z,27.60
2018-12-19T09:59:33.686Z,27.30
2018-12-19T10:00:33.661Z,25.00
2018-12-19T10:01:33.644Z,24.20
2018-12-19T10:02:33.633Z,26.90
2018-12-19T10:03:33.628Z,25.10
2018-12-19T10:04:33.638Z,30.20
2018-12-19T10:05:33.622Z,24.90
2018-12-19T10:06:33.597Z,24.40
2018-12-19T10:07:33.587Z,25.60
2018-12-19T10:08:33.577Z,25.80
2018-12-19T10:09:33.574Z,26.00
2018-12-19T10:10:33.549Z,25.60
2018-12-19T10:11:33.540Z,25.60
2018-12-19T10:12:33.534Z,24.30
2018-12-19T10:13:33.559Z,23.00
2018-12-19T10:14:33.535Z,23.30
2018-12-19T10:15:33.495Z,24.70
2018-12-19T10:16:33.488Z,25.50
2018-12-19T10:17:33.472Z,26.20
2018-12-19T10:18:33.456Z,23.90
2018-12-19T10:19:33.469Z,25.00
2018-12-19T10:20:33.441Z,25.80
2018-12-19T10:21:33.424Z,24.10
2018-12-19T10:22:33.419Z,25.00
2018-12-19T10:23:33.415Z,24.10
2018-12-19T10:24:33.392Z,23.50
2018-12-19T10:25:33.400Z,24.60
2018-12-19T10:26:33.368Z,23.80
2018-12-19T10:27:33.360Z,25.30
2018-12-19T10:28:33.362Z,24.40
2018-12-19T10:29:33.335Z,23.40
2018-12-19T10:30:33.345Z,21.70
2018-12-19T10:31:33.340Z,24.50
2018-12-19T10:32:33.308Z,23.90
2018-12-19T10:33:33.297Z,27.50
2018-12-19T10:34:33.287Z,24.40
2018-12-19T10:35:33.318Z,21.70
2018-12-19T10:36:33.273Z,21.80
2018-12-19T10:37:33.269Z,21.50
2018-12-19T10:38:33.264Z,22.50
2018-12-19T10:39:33.249Z,21.00
2018-12-19T10:40:33.240Z,22.00
2018-12-19T10:41:33.218Z,22.00
2018-12-19T10:42:33.199Z,21.30
2018-12-19T10:43:33.205Z,21.00
2018-12-19T10:44:33.180Z,22.90
2018-12-19T10:45:33.184Z,23.30
2018-12-19T10:46:33.156Z,22.40
2018-12-19T10:47:33.178Z,20.90
2018-12-19T10:48:33.151Z,21.30
2018-12-19T10:49:33.141Z,21.10
2018-12-19T10:50:33.106Z,20.00
2018-12-19T10:51:33.129Z,24.40
2018-12-19T10:52:33.096Z,22.00
2018-12-19T10:53:33.865Z,21.60
2018-12-19T10:54:33.077Z,20.10
2018-12-19T10:55:33.064Z,20.90
2018-12-19T10:56:33.064Z,21.40
2018-12-19T10:57:33.056Z,19.60
2018-12-19T10:58:33.017Z,19.90
2018-12-19T10:59:33.016Z,20.50
2018-12-19T11:00:33.004Z,21.30
2018-12-19T11:01:33.013Z,21.80
2018-12-19T11:02:32.989Z,21.60
2018-12-19T11:03:32.961Z,22.10
2018-12-19T11:04:32.955Z,22.40
2018-12-19T11:05:32.951Z,21.90
2018-12-19T11:06:32.948Z,21.00
2018-12-19T11:07:32.952Z,20.00
2018-12-19T11:08:32.913Z,20.40
2018-12-19T11:09:32.903Z,19.10
2018-12-19T11:10:32.887Z,22.30
2018-12-19T11:11:32.901Z,20.80
2018-12-19T11:12:32.875Z,20.80
2018-12-19T11:13:32.846Z,18.90
2018-12-19T11:14:32.837Z,22.60
2018-12-19T11:15:32.830Z,20.10
2018-12-19T11:16:32.863Z,22.20
2018-12-19T11:17:32.820Z,18.50
2018-12-19T11:18:32.792Z,19.30
2018-12-19T11:19:32.788Z,19.80
2018-12-19T11:20:32.787Z,19.90
2018-12-19T11:21:32.784Z,21.10
2018-12-19T11:22:32.756Z,19.80
2018-12-19T11:23:32.742Z,20.80
2018-12-19T11:24:32.726Z,21.20
2018-12-19T11:25:32.718Z,19.50
2018-12-19T11:26:32.701Z,21.50
2018-12-19T11:27:32.707Z,22.50
2018-12-19T11:28:32.697Z,21.50
2018-12-19T11:29:32.672Z,20.40
2018-12-19T11:30:32.700Z,20.30
2018-12-19T11:31:32.649Z,21.90
2018-12-19T11:32:32.632Z,20.10
2018-12-19T11:33:32.649Z,20.50
2018-12-19T11:34:32.618Z,19.80
2018-12-19T11:35:32.609Z,20.70
2018-12-19T11:36:32.588Z,20.00
2018-12-19T11:37:32.601Z,21.80
2018-12-19T11:38:32.562Z,19.20
2018-12-19T11:39:32.552Z,20.60
2018-12-19T11:40:32.542Z,19.60
2018-12-19T11:41:38.780Z,22.20
2018-12-19T11:42:33.561Z,22.30
2018-12-19T11:43:32.508Z,19.30
2018-12-19T11:44:32.538Z,20.70
2018-12-19T11:45:32.493Z,18.20
2018-12-19T11:46:32.474Z,20.40
2018-12-19T11:47:32.498Z,21.00
2018-12-19T11:48:32.459Z,26.20
2018-12-19T11:49:32.473Z,27.40
2018-12-19T11:50:32.435Z,21.30
2018-12-19T11:51:32.420Z,20.90
2018-12-19T11:52:32.414Z,22.80
2018-12-19T11:53:32.426Z,21.10
2018-12-19T11:54:32.434Z,21.30
2018-12-19T11:55:32.382Z,18.50
2018-12-19T11:56:32.371Z,20.90
2018-12-19T11:57:32.353Z,22.40
2018-12-19T11:58:32.400Z,21.20
2018-12-19T11:59:32.337Z,20.20
2018-12-19T12:00:32.365Z,20.80
2018-12-19T12:01:32.329Z,20.40
2018-12-19T12:02:32.299Z,19.80
2018-12-19T12:03:32.308Z,22.70
2018-12-19T12:04:32.284Z,21.40
2018-12-19T12:05:32.277Z,22.40
2018-12-19T12:06:32.254Z,22.40
2018-12-19T12:07:32.244Z,21.60
2018-12-19T12:08:32.236Z,20.20
2018-12-19T12:09:32.252Z,20.70
2018-12-19T12:10:32.229Z,20.80
2018-12-19T12:11:32.193Z,23.50
2018-12-19T12:12:32.201Z,23.00
2018-12-19T12:13:32.178Z,19.80
2018-12-19T12:14:32.182Z,21.00
2018-12-19T12:15:32.154Z,23.00
2018-12-19T12:16:32.145Z,22.00
2018-12-19T12:17:32.125Z,22.40
2018-12-19T12:18:32.124Z,21.70
2018-12-19T12:19:32.149Z,20.10
2018-12-19T12:20:32.118Z,19.50
2018-12-19T12:21:32.089Z,18.40
2018-12-19T12:22:32.083Z,21.40
2018-12-19T12:23:32.098Z,23.20
2018-12-19T12:24:32.050Z,19.50
2018-12-19T12:25:32.064Z,20.50
2018-12-19T12:26:32.056Z,21.90
2018-12-19T12:27:32.027Z,22.20
2018-12-19T12:28:32.037Z,22.70
2018-12-19T12:29:32.009Z,19.70
2018-12-19T12:30:32.005Z,21.30
2018-12-19T12:31:32.010Z,23.60
2018-12-19T12:32:31.963Z,21.50
2018-12-19T12:33:31.961Z,21.40
2018-12-19T12:34:31.947Z,21.20
2018-12-19T12:35:31.958Z,21.00
2018-12-19T12:36:31.964Z,22.80
2018-12-19T12:37:31.907Z,20.10
2018-12-19T12:38:34.188Z,22.20
2018-12-19T12:39:31.898Z,23.80
2018-12-19T12:40:31.914Z,20.90
2018-12-19T12:41:31.858Z,21.10
2018-12-19T12:42:31.906Z,21.50
2018-12-19T12:43:31.850Z,22.80
2018-12-19T12:44:31.840Z,20.30
2018-12-19T12:45:31.823Z,20.10
2018-12-19T12:46:31.845Z,21.20
2018-12-19T12:47:31.801Z,21.20
2018-12-19T12:48:31.792Z,21.40
2018-12-19T12:49:31.804Z,22.40
2018-12-19T12:50:31.786Z,21.00
2018-12-19T12:51:31.785Z,20.20
2018-12-19T12:52:31.769Z,22.80